Time;durP1;ratioP1;P1;durP2;ratioP2;P2;SDS_P1;SDS_P2;PMS_P1;PMS_P2;Temp;Humidity;BMP_temperature;BMP_pressure;BME280_temperature;BME280_humidity;BME280_pressure;Samples;Min_cycle;Max_cycle;Signal;HPM_P1;HPM_P2
2023/10/17 00:00:31;;;;;;;4.20;3.70;;;;;;;2.55;100.00;97556.25;5001356;28;20402;-87
2023/10/17 00:02:59;;;;;;;4.93;4.30;;;;;;;2.54;100.00;97557.25;5000919;28;20481;-87
2023/10/17 00:05:26;;;;;;;4.07;3.67;;;;;;;2.50;100.00;97554.22;5000802;28;20434;-86
2023/10/17 00:07:58;;;;;;;4.70;4.20;;;;;;;2.46;100.00;97552.19;5001387;28;20433;-85
2023/10/17 00:10:26;;;;;;;4.53;3.80;;;;;;;2.41;100.00;97552.75;5006936;28;20560;-84
2023/10/17 00:12:53;;;;;;;4.65;3.70;;;;;;;2.38;100.00;97549.75;5003462;28;20463;-85
2023/10/17 00:15:27;;;;;;;4.22;3.83;;;;;;;2.35;100.00;97545.72;5003593;28;20434;-85
2023/10/17 00:17:55;;;;;;;4.28;3.88;;;;;;;2.32;100.00;97527.84;4986686;28;20835;-86
2023/10/17 00:20:25;;;;;;;5.07;4.00;;;;;;;2.30;100.00;97524.59;5003779;28;20407;-87
2023/10/17 00:22:53;;;;;;;5.63;4.00;;;;;;;2.27;100.00;97517.16;5004281;28;20747;-85
2023/10/17 00:25:20;;;;;;;5.53;3.97;;;;;;;2.26;100.00;97510.31;5003995;28;20440;-84
2023/10/17 00:27:46;;;;;;;4.70;4.03;;;;;;;2.24;100.00;97501.88;5003642;28;20452;-85
2023/10/17 00:30:18;;;;;;;5.33;4.30;;;;;;;2.22;100.00;97496.84;5003582;28;20425;-87
2023/10/17 00:32:46;;;;;;;4.73;4.13;;;;;;;2.21;100.00;97502.25;5005896;28;20500;-86
2023/10/17 00:35:14;;;;;;;5.38;4.15;;;;;;;2.18;100.00;97492.22;5008418;28;20478;-87
2023/10/17 00:37:51;;;;;;;5.47;4.18;;;;;;;2.17;100.00;97488.00;5003633;28;20455;-86
2023/10/17 00:40:34;;;;;;;4.78;4.00;;;;;;;2.14;100.00;97491.81;5003231;28;20433;-86
2023/10/17 00:43:04;;;;;;;4.30;3.75;;;;;;;2.13;100.00;97487.56;5003458;28;20471;-86
2023/10/17 00:45:30;;;;;;;5.40;4.20;;;;;;;2.09;100.00;97496.81;5010780;28;20482;-86
2023/10/17 00:47:58;;;;;;;4.90;4.38;;;;;;;2.06;100.00;97483.31;5022238;28;20432;-86
2023/10/17 00:50:24;;;;;;;6.13;4.32;;;;;;;2.05;100.00;97486.94;5023598;28;20434;-86
2023/10/17 00:52:50;;;;;;;5.00;4.50;;;;;;;2.02;100.00;97472.47;5022716;28;20412;-87
2023/10/17 00:55:18;;;;;;;6.72;4.70;;;;;;;2.01;100.00;97470.06;5024421;28;20408;-86
2023/10/17 00:57:45;;;;;;;6.53;4.53;;;;;;;2.00;100.00;97468.44;5023588;28;20437;-86
2023/10/17 01:00:35;;;;;;;4.28;3.88;;;;;;;1.99;100.00;97464.22;5023029;28;20397;-86
2023/10/17 01:03:01;;;;;;;5.00;4.50;;;;;;;1.98;100.00;97466.03;5023064;28;20408;-86
2023/10/17 01:05:28;;;;;;;9.98;5.22;;;;;;;1.95;100.00;97467.22;5022842;28;20432;-85
2023/10/17 01:07:57;;;;;;;5.43;4.20;;;;;;;1.93;100.00;97461.41;5005612;28;20799;-86
2023/10/17 01:10:26;;;;;;;6.13;4.78;;;;;;;1.91;100.00;97466.00;5025913;28;20453;-87
2023/10/17 01:12:53;;;;;;;5.22;4.60;;;;;;;1.90;100.00;97469.59;5029862;28;20393;-86
2023/10/17 01:15:20;;;;;;;5.37;4.60;;;;;;;1.89;100.00;97461.97;5022964;28;20467;-85
2023/10/17 01:17:47;;;;;;;5.43;4.63;;;;;;;1.86;100.00;97465.78;5024658;28;20416;-84
2023/10/17 01:20:19;;;;;;;5.47;4.60;;;;;;;1.84;100.00;97464.34;5026612;28;20481;-84
2023/10/17 01:22:45;;;;;;;5.13;4.13;;;;;;;1.81;100.00;97462.94;5023849;28;20788;-86
2023/10/17 01:25:29;;;;;;;7.20;5.07;;;;;;;1.78;100.00;97465.94;5023318;28;20491;-82
2023/10/17 01:27:57;;;;;;;6.63;5.07;;;;;;;1.77;100.00;97466.13;5025137;28;20421;-84
2023/10/17 01:30:28;;;;;;;5.35;4.85;;;;;;;1.76;100.00;97467.94;5027311;28;20446;-86
2023/10/17 01:32:56;;;;;;;5.10;4.60;;;;;;;1.75;100.00;97466.31;5022424;28;20515;-86
2023/10/17 01:35:23;;;;;;;5.05;4.53;;;;;;;1.75;100.00;97466.31;5022554;28;20446;-85
2023/10/17 01:37:49;;;;;;;6.80;4.57;;;;;;;1.74;100.00;97462.09;5022583;28;20432;-84
2023/10/17 01:40:23;;;;;;;4.80;4.30;;;;;;;1.74;100.00;97463.91;5022220;28;20393;-86
2023/10/17 01:42:50;;;;;;;5.25;4.57;;;;;;;1.74;100.00;97456.06;5022169;28;20454;-85
2023/10/17 01:45:16;;;;;;;5.50;4.53;;;;;;;1.71;100.00;97454.66;5022395;28;20408;-86
2023/10/17 01:47:43;;;;;;;5.20;4.35;;;;;;;1.70;100.00;97453.06;5022901;28;20750;-87
2023/10/17 01:50:10;;;;;;;5.60;4.40;;;;;;;1.67;100.00;97450.81;5029218;28;20454;-85
2023/10/17 01:52:37;;;;;;;5.10;4.07;;;;;;;1.65;100.00;97454.63;5018789;28;20493;-86
2023/10/17 01:55:10;;;;;;;4.55;4.15;;;;;;;1.62;100.00;97457.63;5023934;28;20478;-86
2023/10/17 01:57:41;;;;;;;5.18;4.18;;;;;;;1.59;100.00;97453.59;5021115;28;20409;-86
2023/10/17 02:00:16;;;;;;;4.75;4.18;;;;;;;1.55;100.00;97454.97;5023960;28;20488;-86
2023/10/17 02:02:42;;;;;;;5.03;4.50;;;;;;;1.56;100.00;97446.16;5021268;28;20393;-86
2023/10/17 02:05:12;;;;;;;6.38;4.65;;;;;;;1.55;100.00;97454.97;5021015;28;20397;-86
2023/10/17 02:07:38;;;;;;;5.10;4.60;;;;;;;1.57;100.00;97453.00;5020380;28;20510;-87
2023/10/17 02:10:07;;;;;;;6.13;4.75;;;;;;;1.57;100.00;97449.56;5020942;28;20439;-85
2023/10/17 02:12:34;;;;;;;4.90;4.17;;;;;;;1.56;100.00;97440.94;5021071;28;20468;-87
2023/10/17 02:15:05;;;;;;;6.07;4.75;;;;;;;1.54;100.00;97438.53;5019857;28;20408;-86
2023/10/17 02:17:32;;;;;;;4.95;4.32;;;;;;;1.54;100.00;97443.72;5020199;28;20822;-86
2023/10/17 02:19:59;;;;;;;6.63;4.82;;;;;;;1.54;100.00;97448.94;5020351;28;20401;-87
2023/10/17 02:22:26;;;;;;;5.38;4.32;;;;;;;1.53;100.00;97447.34;5020148;28;20496;-87
2023/10/17 02:24:56;;;;;;;4.75;4.25;;;;;;;1.55;100.00;97445.34;5019888;28;20517;-87
2023/10/17 02:27:23;;;;;;;6.03;4.30;;;;;;;1.54;100.00;97453.38;5017427;28;20409;-82
2023/10/17 02:29:49;;;;;;;5.53;4.90;;;;;;;1.53;100.00;97456.97;5018731;28;20460;-85
2023/10/17 02:32:18;;;;;;;5.72;4.80;;;;;;;1.52;100.00;97455.34;5003852;28;20442;-86
2023/10/17 02:34:47;;;;;;;5.90;4.40;;;;;;;1.52;100.00;97452.75;5019560;28;20826;-86
2023/10/17 02:37:19;;;;;;;5.25;4.75;;;;;;;1.51;100.00;97462.38;5019833;28;20412;-87
2023/10/17 02:39:45;;;;;;;5.43;4.60;;;;;;;1.52;100.00;97471.81;5019969;28;20413;-86
2023/10/17 02:42:11;;;;;;;6.20;5.00;;;;;;;1.53;100.00;97480.44;5019663;28;20420;-86
2023/10/17 02:44:43;;;;;;;7.07;5.10;;;;;;;1.53;100.00;97480.44;5020569;28;20980;-87
2023/10/17 02:47:12;;;;;;;6.50;5.13;;;;;;;1.52;100.00;97474.41;5004756;28;20398;-87
2023/10/17 02:49:43;;;;;;;6.78;5.28;;;;;;;1.51;100.00;97477.22;5001232;28;20422;-86
2023/10/17 02:52:09;;;;;;;5.82;4.97;;;;;;;1.51;100.00;97478.00;5002360;28;20410;-87
2023/10/17 02:57:20;;;;;;;6.25;5.22;;;;;;;1.53;100.00;97483.06;5001182;28;20425;-87
2023/10/17 02:59:46;;;;;;;6.03;5.28;;;;;;;1.54;100.00;97474.22;5001337;28;20438;-85
2023/10/17 03:02:13;;;;;;;5.90;5.00;;;;;;;1.53;100.00;97481.25;5004667;28;20406;-86
2023/10/17 03:04:43;;;;;;;5.47;4.90;;;;;;;1.54;100.00;97476.84;5006248;28;20403;-86
2023/10/17 03:07:11;;;;;;;5.72;4.90;;;;;;;1.53;100.00;97476.03;5003686;28;20399;-86
2023/10/17 03:09:39;;;;;;;5.65;4.45;;;;;;;1.52;100.00;97471.81;5001213;28;20554;-87
2023/10/17 03:17:11;;;;;;;6.73;4.53;;;;;;;1.51;100.00;97451.13;5001729;28;20434;-86
2023/10/17 03:19:39;;;;;;;5.22;4.72;;;;;;;1.51;100.00;97453.72;5001300;28;20399;-85
2023/10/17 03:22:19;;;;;;;5.78;4.80;;;;;;;1.51;100.00;97445.91;5001852;28;20493;-86
2023/10/17 03:24:46;;;;;;;5.20;4.60;;;;;;;1.52;100.00;97450.94;5001308;28;20410;-85
2023/10/17 03:27:26;;;;;;;5.80;4.70;;;;;;;1.52;100.00;97448.34;5000636;28;20438;-87
2023/10/17 03:29:52;;;;;;;5.20;4.60;;;;;;;1.53;100.00;97452.56;5001094;28;20422;-86
2023/10/17 03:32:21;;;;;;;5.22;4.72;;;;;;;1.53;100.00;97451.75;5001321;28;20414;-86
2023/10/17 03:34:56;;;;;;;4.78;4.35;;;;;;;1.52;100.00;97450.94;5000708;28;20402;-87
2023/10/17 03:39:52;;;;;;;6.07;5.40;;;;;;;1.53;100.00;97456.97;5000569;28;20417;-84
2023/10/17 03:42:31;;;;;;;6.10;4.72;;;;;;;1.52;100.00;97447.53;4987611;28;20464;-86
2023/10/17 03:44:58;;;;;;;5.57;4.60;;;;;;;1.53;100.00;97452.56;5008247;28;20454;-86
2023/10/17 03:47:25;;;;;;;5.55;4.95;;;;;;;1.56;100.00;97451.38;5027856;28;20401;-84
2023/10/17 03:49:56;;;;;;;5.82;4.88;;;;;;;1.59;100.00;97458.00;5026235;28;20412;-84
2023/10/17 03:52:22;;;;;;;5.45;4.63;;;;;;;1.61;100.00;97456.81;5019940;28;20462;-84
2023/10/17 03:54:49;;;;;;;5.22;4.72;;;;;;;1.64;100.00;97450.41;5015411;28;20441;-85
2023/10/17 03:57:15;;;;;;;6.38;4.97;;;;;;;1.66;100.00;97448.41;5016103;28;20768;-87
2023/10/17 03:59:42;;;;;;;6.38;4.78;;;;;;;1.67;100.00;97452.63;5018427;28;20401;-86
2023/10/17 04:02:17;;;;;;;5.97;5.05;;;;;;;1.68;100.00;97452.44;5009174;28;20448;-84
2023/10/17 04:04:49;;;;;;;5.40;4.90;;;;;;;1.69;100.00;97451.44;5017533;28;20425;-87
2023/10/17 04:07:19;;;;;;;5.35;4.57;;;;;;;1.70;100.00;97449.63;5014278;28;20493;-87
2023/10/17 04:15:18;;;;;;;5.65;4.88;;;;;;;1.71;100.00;97444.22;4976734;28;20423;-86
2023/10/17 04:17:46;;;;;;;5.28;4.63;;;;;;;1.73;100.00;97446.66;5018426;28;20452;-87
2023/10/17 04:20:12;;;;;;;5.30;4.80;;;;;;;1.76;100.00;97454.06;5006830;28;20402;-86
2023/10/17 04:22:40;;;;;;;8.40;6.28;;;;;;;1.74;100.00;97441.22;5010225;28;20810;-86
2023/10/17 04:27:54;;;;;;;8.18;5.90;;;;;;;1.78;100.00;97439.03;5011445;28;20408;-86
2023/10/17 04:30:23;;;;;;;6.45;5.35;;;;;;;1.78;100.00;97434.63;5011155;28;20441;-86
2023/10/17 04:32:52;;;;;;;8.10;5.90;;;;;;;1.79;100.00;97428.41;5007216;28;20411;-87
2023/10/17 04:35:20;;;;;;;6.47;5.78;;;;;;;1.82;100.00;97422.78;5006273;28;21290;-86
2023/10/17 04:38:19;;;;;;;6.23;5.33;;;;;;;1.85;100.00;97429.44;5013000;28;20490;-86
2023/10/17 04:40:37;;;;;;;6.40;5.35;;;;;;;1.87;100.00;97417.00;5014070;28;20503;-84
2023/10/17 04:45:55;;;;;;;5.68;4.97;;;;;;;1.92;100.00;97410.19;5013247;28;20819;-84
2023/10/17 04:48:32;;;;;;;6.30;5.28;;;;;;;1.95;100.00;97407.16;5002673;28;20985;-83
2023/10/17 04:51:11;;;;;;;5.75;5.13;;;;;;;1.98;100.00;97413.00;5015949;28;20421;-83
2023/10/17 04:53:47;;;;;;;6.60;5.50;;;;;;;1.99;100.00;97414.63;5013051;28;20410;-83
2023/10/17 04:56:16;;;;;;;7.10;5.25;;;;;;;2.01;100.00;97410.03;5018103;28;20415;-84
2023/10/17 04:58:53;;;;;;;5.75;5.10;;;;;;;2.02;100.00;97409.81;5019367;28;20872;-80
2023/10/17 05:04:20;;;;;;;6.88;5.32;;;;;;;2.08;100.00;97401.22;5009916;28;20549;-82
2023/10/17 06:16:51;;;;;;;6.80;6.07;;;;;;;2.16;100.00;97397.59;5007488;28;20484;-79
2023/10/17 06:18:32;;;;;;;8.68;7.25;;;;;;;2.70;100.00;97431.47;5004140;28;20503;-85
2023/10/17 06:21:07;;;;;;;9.23;7.77;;;;;;;2.71;100.00;97439.06;5008115;28;20418;-85
2023/10/17 06:34:16;;;;;;;11.90;7.88;;;;;;;2.89;100.00;97448.16;5003773;28;20452;-86
2023/10/17 06:36:43;;;;;;;10.10;8.13;;;;;;;2.91;100.00;97448.75;5003746;28;20406;-84
2023/10/17 06:39:17;;;;;;;10.07;7.90;;;;;;;2.96;100.00;97451.56;5004458;28;20406;-85
2023/10/17 06:41:46;;;;;;;9.43;7.90;;;;;;;3.00;100.00;97452.78;4986813;28;20406;-82
2023/10/17 06:44:21;;;;;;;9.48;7.22;;;;;;;3.05;100.00;97448.56;5001033;28;20448;-83
2023/10/17 06:47:02;;;;;;;8.73;6.90;;;;;;;3.12;100.00;97451.16;5021022;28;20435;-84
2023/10/17 06:54:40;;;;;;;9.02;7.82;;;;;;;3.36;100.00;97455.78;5025520;28;20495;-85
2023/10/17 06:57:18;;;;;;;9.30;7.50;;;;;;;3.45;100.00;97454.56;5024852;28;20442;-86
2023/10/17 06:59:45;;;;;;;8.43;7.22;;;;;;;3.55;100.00;97456.75;5022509;28;20445;-86
2023/10/17 07:02:19;;;;;;;8.65;6.88;;;;;;;3.63;100.00;97447.88;5021334;28;20405;-85
2023/10/17 07:04:50;;;;;;;8.50;7.27;;;;;;;3.72;100.00;97459.72;5023971;28;20412;-86
2023/10/17 07:07:31;;;;;;;9.18;7.82;;;;;;;3.78;100.00;97451.84;5025131;28;20409;-87
2023/10/17 07:10:38;;;;;;;11.52;8.93;;;;;;;3.83;100.00;97446.78;5012725;28;20433;-87
2023/10/17 07:16:48;;;;;;;12.88;9.55;;;;;;;3.93;100.00;97448.97;5018923;28;20437;-86
2023/10/17 07:21:57;;;;;;;19.40;12.40;;;;;;;3.92;100.00;97443.94;5024673;28;20409;-87
2023/10/17 07:24:50;;;;;;;19.08;12.10;;;;;;;3.91;100.00;97439.75;5013682;28;20412;-87
2023/10/17 07:27:58;;;;;;;14.70;10.98;;;;;;;3.96;100.00;97439.91;5011614;28;20458;-86
2023/10/17 07:30:35;;;;;;;16.13;10.95;;;;;;;4.08;100.00;97446.91;4997713;28;20494;-86
2023/10/17 07:33:08;;;;;;;17.27;11.93;;;;;;;4.02;100.00;97431.22;4981291;28;20427;-86
2023/10/17 07:38:52;;;;;;;17.23;11.67;;;;;;;4.19;100.00;97437.59;5008548;28;20482;-85
2023/10/17 07:41:36;;;;;;;16.00;10.80;;;;;;;4.32;100.00;97436.72;5007154;28;20588;-85
2023/10/17 07:44:09;;;;;;;12.80;9.82;;;;;;;4.45;100.00;97436.66;4990802;28;20457;-86
2023/10/17 07:46:38;;;;;;;15.20;11.02;;;;;;;4.32;100.00;97429.66;5027270;28;20408;-85
2023/10/17 07:49:04;;;;;;;13.95;10.35;;;;;;;4.38;100.00;97426.19;5013228;28;20484;-86
2023/10/17 07:51:35;;;;;;;15.32;10.88;;;;;;;4.44;100.00;97421.94;5030513;28;20404;-85
2023/10/17 07:54:07;;;;;;;16.38;11.02;;;;;;;4.43;100.00;97425.59;5029942;28;20836;-85
2023/10/17 07:56:33;;;;;;;18.85;11.15;;;;;;;4.62;100.00;97424.66;5014003;28;20433;-85
2023/10/17 07:59:15;;;;;;;14.15;10.30;;;;;;;4.76;100.00;97422.72;5027425;28;20428;-87
2023/10/17 08:01:43;;;;;;;13.77;9.73;;;;;;;4.91;100.00;97415.34;5005963;28;20408;-86
2023/10/17 08:06:42;;;;;;;16.30;10.68;;;;;;;5.16;100.00;97423.22;5024630;28;20411;-86
2023/10/17 08:09:36;;;;;;;14.75;10.35;;;;;;;5.26;100.00;97419.06;5020650;28;20413;-83
2023/10/17 08:11:59;;;;;;;17.45;11.38;;;;;;;5.21;100.00;97411.06;5014614;28;20406;-83
2023/10/17 08:14:37;;;;;;;13.00;10.23;;;;;;;5.43;100.00;97411.44;5018407;28;20479;-85
2023/10/17 08:17:05;;;;;;;10.70;8.88;;;;;;;5.66;100.00;97411.59;5016921;28;20405;-84
2023/10/17 08:19:36;;;;;;;12.43;9.47;;;;;;;5.84;100.00;97416.88;5020985;28;20465;-85
2023/10/17 08:27:13;;;;;;;16.40;11.55;;;;;;;6.01;100.00;97406.59;5024935;28;20784;-85
2023/10/17 08:29:48;;;;;;;14.80;11.00;;;;;;;6.17;100.00;97408.59;5022353;28;20423;-87
2023/10/17 08:34:48;;;;;;;15.00;11.10;;;;;;;6.27;100.00;97405.44;5019082;28;20488;-83
2023/10/17 08:37:19;;;;;;;18.15;13.00;;;;;;;6.12;100.00;97397.16;5020313;28;20464;-83
2023/10/17 08:42:14;;;;;;;14.35;11.05;;;;;;;6.26;100.00;97409.09;5019443;28;20452;-82
2023/10/17 08:44:42;;;;;;;15.20;11.57;;;;;;;6.36;100.00;97411.19;5019225;28;20401;-85
2023/10/17 08:47:11;;;;;;;16.75;12.27;;;;;;;6.30;100.00;97415.53;5026679;28;20423;-84
2023/10/17 08:49:39;;;;;;;18.80;12.65;;;;;;;6.45;100.00;97412.47;5020722;28;20891;-85
2023/10/17 08:52:06;;;;;;;18.57;12.33;;;;;;;6.38;100.00;97409.16;5019953;28;20401;-83
2023/10/17 08:54:32;;;;;;;20.92;12.90;;;;;;;6.32;100.00;97400.31;5003152;28;20398;-85
2023/10/17 08:57:03;;;;;;;16.35;12.25;;;;;;;6.45;100.00;97410.66;5005513;28;20398;-84
2023/10/17 09:02:28;;;;;;;21.05;14.07;;;;;;;6.60;100.00;97411.06;5006862;28;20426;-84
2023/10/17 09:05:00;;;;;;;14.45;11.13;;;;;;;6.74;100.00;97406.38;5000240;28;20399;-83
2023/10/17 09:07:43;;;;;;;14.80;11.70;;;;;;;6.85;100.00;97402.16;5000288;28;20418;-83
2023/10/17 09:10:20;;;;;;;19.10;13.75;;;;;;;6.95;100.00;97411.09;5000763;28;20473;-83
2023/10/17 09:15:48;;;;;;;14.83;11.33;;;;;;;7.23;100.00;97396.47;5001724;28;20889;-83
2023/10/17 09:18:14;;;;;;;14.13;10.70;;;;;;;7.37;100.00;97398.63;5000194;28;20410;-82
2023/10/17 09:20:41;;;;;;;21.40;11.05;;;;;;;7.51;100.00;97390.53;5002041;28;20421;-83
2023/10/17 09:23:23;;;;;;;12.48;9.35;;;;;;;7.64;100.00;97396.34;5001938;28;20406;-84
2023/10/17 09:25:54;;;;;;;10.43;8.50;;;;;;;7.79;100.00;97390.56;5003572;28;20398;-84
2023/10/17 09:28:25;;;;;;;12.40;9.52;;;;;;;7.90;100.00;97399.47;5002479;28;20409;-84
2023/10/17 09:30:58;;;;;;;16.27;11.60;;;;;;;7.87;100.00;97392.84;5004911;28;20407;-84
2023/10/17 09:33:30;;;;;;;14.60;10.77;;;;;;;8.02;100.00;97395.78;5002417;28;20440;-83
2023/10/17 09:36:02;;;;;;;13.98;10.27;;;;;;;8.15;100.00;97398.13;5006419;28;20501;-84
2023/10/17 09:38:30;;;;;;;19.58;12.30;;;;;;;8.26;100.00;97400.97;5000300;28;20824;-84
2023/10/17 09:41:01;;;;;;;15.55;11.05;;;;;;;8.42;100.00;97395.75;5001919;28;20393;-85
2023/10/17 09:43:29;;;;;;;18.27;12.35;;;;;;;8.49;100.00;97393.00;5000641;28;20410;-83
2023/10/17 09:46:04;;;;;;;19.00;12.30;;;;;;;8.54;100.00;97391.25;5008014;28;20912;-84
2023/10/17 09:48:35;;;;;;;18.40;11.60;;;;;;;8.73;100.00;97391.00;5017914;28;20432;-84
2023/10/17 09:51:03;;;;;;;14.75;11.07;;;;;;;8.97;100.00;97394.31;5018712;28;20411;-83
2023/10/17 09:53:32;;;;;;;12.93;9.48;;;;;;;9.16;100.00;97401.75;5018611;28;20389;-82
2023/10/17 09:56:03;;;;;;;12.30;9.27;;;;;;;9.38;100.00;97399.16;5020671;28;20440;-85
2023/10/17 09:58:34;;;;;;;11.07;8.95;;;;;;;9.44;100.00;97397.38;5024719;28;20407;-83
2023/10/17 10:01:05;;;;;;;13.80;9.95;;;;;;;9.44;100.00;97395.53;5020137;28;20704;-85
2023/10/17 10:03:35;;;;;;;17.20;11.15;;;;;;;9.42;100.00;97392.34;5021764;28;20400;-85
2023/10/17 10:06:22;;;;;;;12.70;9.10;;;;;;;9.44;100.00;97390.25;5018066;28;20401;-85
2023/10/17 10:08:52;;;;;;;11.57;8.75;;;;;;;9.48;100.00;97398.47;5018247;28;20421;-85
2023/10/17 10:11:20;;;;;;;11.35;8.73;;;;;;;9.48;100.00;97393.19;4998588;28;20815;-84
2023/10/17 10:14:04;;;;;;;11.87;8.77;;;;;;;9.43;100.00;97388.66;4998433;28;20410;-84
2023/10/17 10:16:55;;;;;;;11.60;8.73;;;;;;;9.44;100.00;97390.25;4998498;28;20493;-83
2023/10/17 10:19:21;;;;;;;11.57;8.68;;;;;;;9.49;100.00;97392.97;4982483;28;20425;-83
2023/10/17 10:21:55;;;;;;;11.55;8.27;;;;;;;9.58;100.00;97390.72;4997953;28;20414;-82
2023/10/17 10:24:28;;;;;;;11.10;8.70;;;;;;;9.66;100.00;97388.44;4997629;28;20784;-83
2023/10/17 10:27:35;;;;;;;10.40;8.27;;;;;;;9.82;100.00;97388.63;4997015;28;20430;-83
2023/10/17 10:30:43;;;;;;;10.48;7.95;;;;;;;9.97;100.00;97376.41;4996021;28;20953;-81
2023/10/17 10:33:09;;;;;;;14.43;9.67;;;;;;;9.99;100.00;97374.31;5004997;28;20466;-85
2023/10/17 10:35:43;;;;;;;13.30;9.68;;;;;;;10.03;100.00;97372.75;5003707;28;20398;-87
2023/10/17 10:38:09;;;;;;;14.48;9.82;;;;;;;10.05;100.00;97365.38;4988219;28;20421;-87
2023/10/17 10:40:40;;;;;;;15.35;10.02;;;;;;;10.07;100.00;97363.28;5005615;28;20418;-87
2023/10/17 10:43:06;;;;;;;13.00;8.93;;;;;;;10.09;100.00;97360.38;5004525;28;20410;-82
2023/10/17 10:45:55;;;;;;;13.65;9.20;;;;;;;10.10;100.00;97360.16;5001874;28;20874;-85
2023/10/17 10:48:22;;;;;;;13.07;8.85;;;;;;;10.11;100.00;97355.66;5000467;28;20402;-82
2023/10/17 10:50:55;;;;;;;12.32;8.65;;;;;;;10.12;100.00;97364.41;5001431;28;20902;-83
2023/10/17 10:53:23;;;;;;;12.87;8.63;;;;;;;10.08;100.00;97367.53;4999669;28;20460;-84
2023/10/17 10:55:55;;;;;;;19.15;11.85;;;;;;;9.87;100.00;97357.75;5004212;28;20402;-84
2023/10/17 10:58:22;;;;;;;13.45;9.73;;;;;;;9.83;100.00;97369.09;5003123;28;20447;-84
2023/10/17 11:00:49;;;;;;;12.13;8.82;;;;;;;9.80;100.00;97370.38;4982490;28;20422;-84
2023/10/17 11:03:18;;;;;;;14.63;10.18;;;;;;;9.78;100.00;97369.81;5010675;28;20404;-83
2023/10/17 11:05:59;;;;;;;12.98;9.05;;;;;;;9.78;100.00;97366.38;5023354;28;20448;-84
2023/10/17 11:08:35;;;;;;;11.55;8.27;;;;;;;9.80;100.00;97362.44;5022874;28;20428;-83
2023/10/17 11:11:03;;;;;;;12.32;8.20;;;;;;;9.84;100.00;97362.75;5024048;28;20447;-85
2023/10/17 11:13:34;;;;;;;13.27;9.05;;;;;;;9.91;100.00;97358.09;5027269;28;20385;-85
2023/10/17 11:16:00;;;;;;;15.32;10.35;;;;;;;9.98;100.00;97359.50;5020638;28;20761;-85
2023/10/17 11:18:28;;;;;;;16.08;10.93;;;;;;;9.94;100.00;97350.44;5019709;28;20412;-85
2023/10/17 11:20:57;;;;;;;18.07;11.57;;;;;;;9.87;100.00;97356.97;5020215;28;20885;-85
2023/10/17 11:23:27;;;;;;;23.35;11.52;;;;;;;9.89;100.00;97354.88;5019895;28;20508;-86
2023/10/17 11:25:54;;;;;;;17.10;11.07;;;;;;;9.93;100.00;97359.41;5018459;28;20393;-86
2023/10/17 11:28:21;;;;;;;14.82;9.07;;;;;;;10.01;100.00;97360.81;5018890;28;20766;-86
2023/10/17 11:30:48;;;;;;;11.02;8.85;;;;;;;10.10;100.00;97357.50;5019854;28;20495;-86
2023/10/17 11:33:18;;;;;;;11.15;8.30;;;;;;;10.26;100.00;97349.75;5019273;28;20437;-87
2023/10/17 11:35:49;;;;;;;14.00;9.30;;;;;;;10.45;100.00;97337.75;5018679;28;20401;-87
2023/10/17 11:38:34;;;;;;;10.77;7.87;;;;;;;10.70;100.00;97335.34;5021496;28;20412;-85
2023/10/17 11:41:01;;;;;;;11.48;7.93;;;;;;;10.86;100.00;97329.13;5018862;28;20437;-87
2023/10/17 11:43:34;;;;;;;12.03;8.00;;;;;;;10.91;100.00;97328.34;5023810;28;20408;-85
2023/10/17 11:46:02;;;;;;;10.50;7.78;;;;;;;10.91;100.00;97328.34;5019615;28;20936;-86
2023/10/17 11:48:31;;;;;;;9.55;7.65;;;;;;;10.87;100.00;97335.22;5017066;28;20413;-86
2023/10/17 11:51:12;;;;;;;11.35;7.78;;;;;;;10.81;100.00;97325.63;5018041;28;20825;-86
2023/10/17 11:54:05;;;;;;;11.80;8.00;;;;;;;10.66;100.00;97326.31;5020489;28;20427;-85
2023/10/17 11:56:32;;;;;;;16.25;11.00;;;;;;;10.52;100.00;97322.50;5020064;28;20421;-87
2023/10/17 11:59:01;;;;;;;12.70;8.90;;;;;;;10.44;100.00;97318.47;5024640;28;20447;-87
2023/10/17 12:01:28;;;;;;;14.30;8.63;;;;;;;10.39;100.00;97326.34;5024897;28;20460;-86
2023/10/17 12:03:56;;;;;;;11.88;9.15;;;;;;;10.37;100.00;97319.72;5022846;28;20454;-86
2023/10/17 12:06:26;;;;;;;11.20;8.10;;;;;;;10.37;100.00;97320.50;5025986;28;20762;-86
2023/10/17 12:08:53;;;;;;;10.23;7.90;;;;;;;10.41;100.00;97326.09;5024517;28;20495;-87
2023/10/17 12:11:24;;;;;;;16.45;10.13;;;;;;;10.32;100.00;97315.16;5023141;28;20447;-84
2023/10/17 12:13:51;;;;;;;20.40;11.20;;;;;;;10.35;100.00;97314.66;5021175;28;20405;-86
2023/10/17 12:16:17;;;;;;;18.92;11.90;;;;;;;10.36;100.00;97310.97;5021222;28;20456;-84
2023/10/17 12:18:44;;;;;;;16.48;11.40;;;;;;;10.32;100.00;97299.28;5024986;28;20401;-85
2023/10/17 12:21:14;;;;;;;16.50;11.20;;;;;;;10.38;100.00;97300.91;5024587;28;20400;-86
2023/10/17 12:23:40;;;;;;;17.42;11.25;;;;;;;10.55;100.00;97290.22;5023174;28;20409;-85
2023/10/17 12:26:19;;;;;;;16.98;10.85;;;;;;;10.64;100.00;97291.34;5021802;28;20396;-84
2023/10/17 12:28:46;;;;;;;13.73;9.73;;;;;;;10.77;100.00;97287.47;5023008;28;20430;-86
2023/10/17 12:31:19;;;;;;;16.13;11.00;;;;;;;10.75;100.00;97286.94;5026255;28;20428;-85
2023/10/17 12:33:45;;;;;;;12.75;9.05;;;;;;;10.77;100.00;97282.16;5028520;28;20405;-86
2023/10/17 12:36:12;;;;;;;14.18;9.32;;;;;;;10.77;100.00;97284.81;5025915;28;20405;-85
2023/10/17 12:38:39;;;;;;;13.40;9.07;;;;;;;10.80;100.00;97282.47;5023098;28;20405;-88
2023/10/17 12:41:08;;;;;;;10.68;8.13;;;;;;;10.82;100.00;97276.94;5024996;28;20401;-87
2023/10/17 12:43:35;;;;;;;16.67;9.82;;;;;;;10.80;100.00;97273.72;5025969;28;20457;-87
2023/10/17 12:46:03;;;;;;;13.47;8.80;;;;;;;10.78;100.00;97276.63;5020614;28;20399;-87
2023/10/17 12:48:29;;;;;;;13.88;8.57;;;;;;;10.75;100.00;97279.00;5013352;28;20402;-87
2023/10/17 12:50:55;;;;;;;18.27;11.55;;;;;;;10.62;100.00;97268.81;5005062;28;20438;-86
2023/10/17 12:53:21;;;;;;;14.38;9.32;;;;;;;10.57;100.00;97258.22;5005800;28;20867;-86
2023/10/17 12:55:48;;;;;;;15.82;11.05;;;;;;;10.41;100.00;97252.81;5005412;28;20410;-86
2023/10/17 12:58:18;;;;;;;16.50;11.17;;;;;;;10.36;100.00;97258.06;5005829;28;20466;-86
2023/10/17 13:00:48;;;;;;;20.53;12.23;;;;;;;10.22;100.00;97262.19;5007502;28;20402;-86
2023/10/17 13:03:16;;;;;;;16.13;10.53;;;;;;;10.19;100.00;97267.16;5006454;28;20410;-86
2023/10/17 13:05:43;;;;;;;14.15;9.48;;;;;;;10.18;100.00;97270.84;5007903;28;20406;-88
2023/10/17 13:08:09;;;;;;;14.38;9.25;;;;;;;10.16;100.00;97273.69;5007438;28;20781;-87
2023/10/17 13:10:35;;;;;;;12.10;8.60;;;;;;;10.16;100.00;97263.13;5007670;28;20561;-88
2023/10/17 13:13:02;;;;;;;16.95;10.07;;;;;;;10.15;100.00;97264.16;5008300;28;20448;-86
2023/10/17 13:15:28;;;;;;;13.15;8.60;;;;;;;10.14;100.00;97265.25;5004335;28;20410;-87
2023/10/17 13:18:00;;;;;;;11.82;8.20;;;;;;;10.14;100.00;97256.50;5004111;28;20399;-87
2023/10/17 13:20:28;;;;;;;11.95;8.30;;;;;;;10.14;100.00;97248.56;5004318;28;20410;-86
2023/10/17 13:22:55;;;;;;;14.20;9.30;;;;;;;10.15;100.00;97258.88;5005185;28;20790;-88
2023/10/17 13:25:22;;;;;;;12.90;8.50;;;;;;;10.14;100.00;97257.31;5006082;28;20406;-85
2023/10/17 13:27:48;;;;;;;11.50;7.88;;;;;;;10.17;100.00;97248.06;5006093;28;20403;-86
2023/10/17 13:30:14;;;;;;;11.45;8.13;;;;;;;10.23;100.00;97239.13;5003864;28;20422;-85
2023/10/17 13:32:40;;;;;;;11.98;8.00;;;;;;;10.28;100.00;97241.84;5003637;28;20399;-84
2023/10/17 13:35:08;;;;;;;9.55;7.30;;;;;;;10.33;100.00;97244.53;5004263;28;20404;-84
2023/10/17 13:37:36;;;;;;;12.70;8.18;;;;;;;10.33;100.00;97242.69;5001727;28;20430;-82
2023/10/17 13:40:02;;;;;;;16.60;10.63;;;;;;;10.25;100.00;97231.75;5005960;28;20417;-84
2023/10/17 13:42:28;;;;;;;16.75;9.80;;;;;;;10.23;100.00;97229.34;5001644;28;20406;-84
2023/10/17 13:44:55;;;;;;;12.50;8.63;;;;;;;10.25;100.00;97229.91;5003009;28;20402;-85
2023/10/17 13:47:21;;;;;;;11.73;8.00;;;;;;;10.28;100.00;97229.41;5002584;28;20420;-85
2023/10/17 13:49:47;;;;;;;11.80;8.40;;;;;;;10.33;100.00;97229.44;5019835;28;20416;-84
2023/10/17 13:52:17;;;;;;;10.57;7.43;;;;;;;10.38;100.00;97242.72;5013401;28;20772;-85
2023/10/17 13:54:46;;;;;;;9.13;7.00;;;;;;;10.44;100.00;97236.44;5008982;28;20413;-84
2023/10/17 13:57:12;;;;;;;10.77;7.20;;;;;;;10.49;100.00;97235.66;5004183;28;20407;-85